createdAt,value
2018-12-02T00:01:08.932Z,21.80
2018-12-02T00:03:36.523Z,21.90
2018-12-02T00:06:04.372Z,21.80
2018-12-02T00:08:31.930Z,21.80
2018-12-02T00:10:59.506Z,21.90
2018-12-02T00:13:27.184Z,21.90
2018-12-02T00:15:54.801Z,21.90
2018-12-02T00:18:22.396Z,21.90
2018-12-02T00:20:50.018Z,21.90
2018-12-02T00:23:17.604Z,21.90
2018-12-02T00:25:45.189Z,21.90
2018-12-02T00:28:12.786Z,21.90
2018-12-02T00:30:40.495Z,21.90
2018-12-02T00:33:08.152Z,21.90
2018-12-02T00:35:35.738Z,21.90
2018-12-02T00:38:03.886Z,21.90
2018-12-02T00:40:31.469Z,21.90
2018-12-02T00:42:59.534Z,21.90
2018-12-02T00:45:27.755Z,21.90
2018-12-02T00:47:55.374Z,21.90
2018-12-02T00:50:23.064Z,21.90
2018-12-02T00:52:52.332Z,21.90
2018-12-02T00:55:20.614Z,21.80
2018-12-02T00:57:48.368Z,21.90
2018-12-02T01:00:16.295Z,21.90
2018-12-02T01:02:44.419Z,21.90
2018-12-02T01:05:12.634Z,21.90
2018-12-02T01:07:40.276Z,21.90
2018-12-02T01:10:10.594Z,21.90
2018-12-02T01:12:38.221Z,21.90
2018-12-02T01:15:07.038Z,21.90
2018-12-02T01:17:34.654Z,21.90
2018-12-02T01:20:02.278Z,21.90
2018-12-02T01:22:29.854Z,21.90
2018-12-02T01:24:57.466Z,21.90
2018-12-02T01:27:25.136Z,21.90
2018-12-02T01:29:52.728Z,21.80
2018-12-02T01:32:20.282Z,21.90
2018-12-02T01:34:47.897Z,22.00
2018-12-02T01:37:15.636Z,21.80
2018-12-02T01:39:43.241Z,21.90
2018-12-02T01:42:10.868Z,21.80
2018-12-02T01:44:38.540Z,21.80
2018-12-02T01:47:06.224Z,21.80
2018-12-02T01:49:33.830Z,21.80
2018-12-02T01:52:01.443Z,21.80
2018-12-02T01:54:29.039Z,21.80
2018-12-02T01:56:56.624Z,21.90
2018-12-02T01:59:24.218Z,21.80
2018-12-02T02:01:51.984Z,21.80
2018-12-02T02:04:19.593Z,21.80
2018-12-02T02:06:47.132Z,21.80
2018-12-02T02:09:14.742Z,21.80
2018-12-02T02:11:42.363Z,21.90
2018-12-02T02:14:09.930Z,21.80
2018-12-02T02:16:37.744Z,21.90
2018-12-02T02:19:05.465Z,21.90
2018-12-02T02:21:33.085Z,21.80
2018-12-02T02:24:00.677Z,21.90
2018-12-02T02:26:28.282Z,21.90
2018-12-02T02:28:55.949Z,21.90
2018-12-02T02:31:23.551Z,21.90
2018-12-02T02:33:51.151Z,21.90
2018-12-02T02:36:18.798Z,21.90
2018-12-02T02:38:46.386Z,21.80
2018-12-02T02:41:14.072Z,21.80
2018-12-02T02:43:41.749Z,21.80
2018-12-02T02:46:09.310Z,21.90
2018-12-02T02:48:36.950Z,21.80
2018-12-02T02:51:04.928Z,21.90
2018-12-02T02:53:32.519Z,21.80
2018-12-02T02:56:00.331Z,21.90
2018-12-02T02:58:28.034Z,21.80
2018-12-02T03:00:55.653Z,21.90
2018-12-02T03:03:23.312Z,21.80
2018-12-02T03:05:50.990Z,21.80
2018-12-02T03:08:18.563Z,21.80
2018-12-02T03:10:46.339Z,21.90
2018-12-02T03:13:13.944Z,21.90
2018-12-02T03:15:41.552Z,21.80
2018-12-02T03:18:09.174Z,21.90
2018-12-02T03:20:36.753Z,21.80
2018-12-02T03:23:04.568Z,21.90
2018-12-02T03:25:32.232Z,21.80
2018-12-02T03:27:59.826Z,21.80
2018-12-02T03:30:27.446Z,21.90
2018-12-02T03:32:55.064Z,21.80
2018-12-02T03:35:23.295Z,21.80
2018-12-02T03:37:51.148Z,21.90
2018-12-02T03:40:19.392Z,21.80
2018-12-02T03:42:46.971Z,21.80
2018-12-02T03:45:15.254Z,21.80
2018-12-02T03:47:42.948Z,21.90
2018-12-02T03:50:17.133Z,21.90
2018-12-02T03:52:38.973Z,21.90
2018-12-02T03:55:06.954Z,21.80
2018-12-02T03:57:34.588Z,21.90
2018-12-02T04:00:02.239Z,21.80
2018-12-02T04:02:29.806Z,21.80
2018-12-02T04:04:57.404Z,21.90
2018-12-02T04:07:25.097Z,21.90
2018-12-02T04:09:52.713Z,21.80
2018-12-02T04:12:20.286Z,21.90
2018-12-02T04:14:47.931Z,21.90
2018-12-02T04:17:15.547Z,21.80
2018-12-02T04:19:43.199Z,21.80
2018-12-02T04:22:10.816Z,21.80
2018-12-02T04:24:38.408Z,21.80
2018-12-02T04:27:05.984Z,21.80
2018-12-02T04:29:33.540Z,21.90
2018-12-02T04:32:01.316Z,21.90
2018-12-02T04:34:29.236Z,21.90
2018-12-02T04:36:57.002Z,21.80
2018-12-02T04:39:24.648Z,21.90
2018-12-02T04:41:52.267Z,21.90
2018-12-02T04:44:19.864Z,21.80
2018-12-02T04:46:47.482Z,21.90
2018-12-02T04:49:15.103Z,21.80
2018-12-02T04:51:42.695Z,21.80
2018-12-02T04:54:10.308Z,21.90
2018-12-02T04:56:37.856Z,21.90
2018-12-02T04:59:05.439Z,21.90
2018-12-02T05:01:33.028Z,21.90
2018-12-02T05:04:00.605Z,21.90
2018-12-02T05:06:28.176Z,21.90
2018-12-02T05:08:55.843Z,21.80
2018-12-02T05:11:23.481Z,21.90
2018-12-02T05:13:51.092Z,21.80
2018-12-02T05:16:18.672Z,21.80
2018-12-02T05:18:46.306Z,21.90
2018-12-02T05:21:13.866Z,21.90
2018-12-02T05:23:41.614Z,21.80
2018-12-02T05:26:09.216Z,21.80
2018-12-02T05:28:36.824Z,21.90
2018-12-02T05:31:04.616Z,21.90
2018-12-02T05:33:32.310Z,21.80
2018-12-02T05:35:59.890Z,21.90
2018-12-02T05:38:27.436Z,21.90
2018-12-02T05:40:55.032Z,21.90
2018-12-02T05:43:22.624Z,21.80
2018-12-02T05:45:50.185Z,21.90
2018-12-02T05:48:17.818Z,21.90
2018-12-02T05:50:46.339Z,21.90
2018-12-02T05:53:13.964Z,21.90
2018-12-02T05:55:41.546Z,21.90
2018-12-02T05:58:09.354Z,21.90
2018-12-02T06:00:36.964Z,21.80
2018-12-02T06:03:04.754Z,21.90
2018-12-02T06:05:32.394Z,21.80
2018-12-02T06:07:59.988Z,21.90
2018-12-02T06:10:30.330Z,21.80
2018-12-02T06:12:58.018Z,21.80
2018-12-02T06:15:25.637Z,21.90
2018-12-02T06:17:53.170Z,21.80
2018-12-02T06:20:22.446Z,21.80
2018-12-02T06:22:50.674Z,21.90
2018-12-02T06:25:18.369Z,21.90
2018-12-02T06:27:46.391Z,21.90
2018-12-02T06:30:15.464Z,21.90
2018-12-02T06:32:43.054Z,21.90
2018-12-02T06:35:11.358Z,21.90
2018-12-02T06:37:39.018Z,21.90
2018-12-02T06:40:38.780Z,21.90
2018-12-02T06:43:06.344Z,21.90
2018-12-02T06:45:34.466Z,21.90
2018-12-02T06:48:01.573Z,21.90
2018-12-02T06:50:29.128Z,21.90
2018-12-02T06:52:57.070Z,21.90
2018-12-02T06:55:30.227Z,21.90
2018-12-02T06:59:13.076Z,21.90
2018-12-02T07:01:48.222Z,21.90
2018-12-02T07:04:20.794Z,21.90
2018-12-02T07:06:48.412Z,21.90
2018-12-02T07:09:16.724Z,21.90
2018-12-02T07:11:45.030Z,22.00
2018-12-02T07:14:13.596Z,22.10
2018-12-02T07:16:41.203Z,22.20
2018-12-02T07:19:12.200Z,22.20
2018-12-02T07:21:45.593Z,22.10
2018-12-02T07:24:16.962Z,22.20
2018-12-02T07:26:47.284Z,22.10
2018-12-02T07:29:15.644Z,22.20
2018-12-02T07:31:43.955Z,22.20
2018-12-02T07:34:11.573Z,22.20
2018-12-02T07:36:39.903Z,22.20
2018-12-02T07:39:11.466Z,22.20
2018-12-02T07:41:39.848Z,22.20
2018-12-02T07:44:07.493Z,22.20
2018-12-02T07:46:35.129Z,22.30
2018-12-02T07:49:02.767Z,22.20
2018-12-02T07:51:30.370Z,22.20
2018-12-02T07:53:57.991Z,22.20
2018-12-02T07:56:25.680Z,22.20
2018-12-02T07:58:53.276Z,22.20
2018-12-02T08:01:21.021Z,22.10
2018-12-02T08:03:48.657Z,22.10
2018-12-02T08:06:16.313Z,22.10
2018-12-02T08:08:49.355Z,22.10
2018-12-02T08:11:18.173Z,22.10
2018-12-02T08:13:45.785Z,22.10
2018-12-02T08:16:13.678Z,22.00
2018-12-02T08:18:41.318Z,22.00
2018-12-02T08:21:09.021Z,22.00
2018-12-02T08:23:36.736Z,22.00
2018-12-02T08:26:04.784Z,22.00
2018-12-02T08:28:32.374Z,22.00
2018-12-02T08:31:00.104Z,22.00
2018-12-02T08:33:27.716Z,22.00
2018-12-02T08:35:55.284Z,22.00
2018-12-02T08:38:22.924Z,22.00
2018-12-02T08:40:50.515Z,22.00
2018-12-02T08:43:18.168Z,22.00
2018-12-02T08:45:45.775Z,22.00
2018-12-02T08:48:13.338Z,22.00
2018-12-02T08:50:40.976Z,22.00
2018-12-02T08:53:08.580Z,22.00
2018-12-02T08:55:38.816Z,22.00
2018-12-02T08:58:06.541Z,22.00
2018-12-02T09:00:36.274Z,22.00
2018-12-02T09:03:04.806Z,22.00
2018-12-02T09:05:32.399Z,22.00
2018-12-02T09:08:00.460Z,22.00
2018-12-02T09:10:28.722Z,22.00
2018-12-02T09:12:56.989Z,22.00
2018-12-02T09:15:24.693Z,22.00
2018-12-02T09:17:52.314Z,22.00
2018-12-02T09:20:21.516Z,22.00
2018-12-02T09:22:49.082Z,22.00
2018-12-02T09:25:16.722Z,22.10
2018-12-02T09:27:44.315Z,22.10
2018-12-02T09:30:12.615Z,22.10
2018-12-02T09:32:40.191Z,22.10
2018-12-02T09:35:08.220Z,22.00
2018-12-02T09:37:35.842Z,22.10
2018-12-02T09:40:03.599Z,22.10
2018-12-02T09:42:31.211Z,22.00
2018-12-02T09:44:58.781Z,22.10
2018-12-02T09:47:26.397Z,22.10
2018-12-02T09:49:54.013Z,22.10
2018-12-02T09:52:21.620Z,22.10
2018-12-02T09:54:49.225Z,22.10
2018-12-02T09:57:16.818Z,22.10
2018-12-02T09:59:44.451Z,22.10
2018-12-02T10:02:12.236Z,22.10
2018-12-02T10:04:39.733Z,22.10
2018-12-02T10:07:07.311Z,22.10
2018-12-02T10:09:34.983Z,22.10
2018-12-02T10:12:02.548Z,22.10
2018-12-02T10:14:30.277Z,22.10
2018-12-02T10:16:57.886Z,22.10
2018-12-02T10:19:25.534Z,22.10
2018-12-02T10:21:53.177Z,22.10
2018-12-02T10:24:20.746Z,22.20
2018-12-02T10:26:48.328Z,22.20
2018-12-02T10:29:15.925Z,22.20
2018-12-02T10:31:43.472Z,22.20
2018-12-02T10:34:11.097Z,22.20
2018-12-02T10:36:38.759Z,22.30
2018-12-02T10:39:08.042Z,22.30
2018-12-02T10:41:35.856Z,22.40
2018-12-02T10:44:03.488Z,22.40
2018-12-02T10:46:31.078Z,22.40
2018-12-02T10:48:58.654Z,22.40
2018-12-02T10:51:26.412Z,22.40
2018-12-02T10:53:54.035Z,22.30
2018-12-02T10:56:21.635Z,22.30
2018-12-02T10:58:49.317Z,22.30
2018-12-02T11:01:17.412Z,22.30
2018-12-02T11:03:45.539Z,22.20
2018-12-02T11:06:13.132Z,22.30
2018-12-02T11:08:40.821Z,22.30
2018-12-02T11:11:08.411Z,22.30
2018-12-02T11:13:36.145Z,22.20
2018-12-02T11:16:03.874Z,22.20
2018-12-02T11:18:31.478Z,22.30
2018-12-02T11:20:59.228Z,22.30
2018-12-02T11:23:26.905Z,22.30
2018-12-02T11:25:54.587Z,22.30
2018-12-02T11:28:22.223Z,22.30
2018-12-02T11:30:49.913Z,22.20
2018-12-02T11:33:17.507Z,22.20
2018-12-02T11:35:45.116Z,22.20
2018-12-02T11:38:13.023Z,22.20
2018-12-02T11:40:41.017Z,22.20
2018-12-02T11:43:08.747Z,22.20
2018-12-02T11:45:36.603Z,22.20
2018-12-02T11:48:04.175Z,22.20
2018-12-02T11:50:31.778Z,22.20
2018-12-02T11:52:59.473Z,22.20
2018-12-02T11:55:27.083Z,22.20
2018-12-02T11:57:54.723Z,22.20
2018-12-02T12:00:24.169Z,22.20
2018-12-02T12:02:51.961Z,22.20
2018-12-02T12:05:19.552Z,22.20
2018-12-02T12:07:47.722Z,22.20
2018-12-02T12:10:16.789Z,22.20
2018-12-02T12:12:45.024Z,22.20
2018-12-02T12:15:16.226Z,22.20
2018-12-02T12:17:43.828Z,22.20
2018-12-02T12:20:26.868Z,22.20
2018-12-02T12:22:54.756Z,22.20
2018-12-02T12:25:22.557Z,22.20
2018-12-02T12:27:50.689Z,22.20
2018-12-02T12:30:18.940Z,22.20
2018-12-02T12:32:46.612Z,22.20
2018-12-02T12:35:15.846Z,22.20
2018-12-02T12:37:43.484Z,22.20
2018-12-02T12:40:11.875Z,22.20
2018-12-02T12:42:39.648Z,22.20
2018-12-02T12:45:09.591Z,22.20
2018-12-02T12:47:37.634Z,22.10
2018-12-02T12:50:06.104Z,22.10
2018-12-02T12:52:33.722Z,22.10
2018-12-02T12:55:01.470Z,22.10
2018-12-02T12:57:29.144Z,22.10
2018-12-02T12:59:56.825Z,22.10
2018-12-02T13:02:24.999Z,22.10
2018-12-02T13:04:52.657Z,22.10
2018-12-02T13:07:20.793Z,22.10
2018-12-02T13:09:48.360Z,22.10
2018-12-02T13:12:16.105Z,22.10
2018-12-02T13:14:43.782Z,22.10
2018-12-02T13:17:11.641Z,22.10
2018-12-02T13:19:39.259Z,22.10
2018-12-02T13:22:07.108Z,22.10
2018-12-02T13:24:34.728Z,22.10
2018-12-02T13:27:02.514Z,22.10
2018-12-02T13:29:30.094Z,22.10
2018-12-02T13:31:57.732Z,22.10
2018-12-02T13:34:25.322Z,22.00
2018-12-02T13:36:52.928Z,22.10
2018-12-02T13:39:20.534Z,22.10
2018-12-02T13:41:48.176Z,22.10
2018-12-02T13:44:15.770Z,22.10
2018-12-02T13:46:43.409Z,22.10
2018-12-02T13:49:11.050Z,22.10
2018-12-02T13:51:38.674Z,22.10
2018-12-02T13:54:11.889Z,22.10
2018-12-02T13:56:39.481Z,22.10
2018-12-02T13:59:07.086Z,22.10
2018-12-02T14:01:34.782Z,22.10
2018-12-02T14:04:02.420Z,22.10
2018-12-02T14:06:30.120Z,22.10
2018-12-02T14:08:57.714Z,22.10
2018-12-02T14:11:25.410Z,22.10
2018-12-02T14:13:53.170Z,22.10
2018-12-02T14:16:41.550Z,22.10
2018-12-02T14:19:10.174Z,22.10
2018-12-02T14:21:37.749Z,22.10
2018-12-02T14:24:07.180Z,22.10
2018-12-02T14:26:34.945Z,22.10
2018-12-02T14:29:07.176Z,22.10
2018-12-02T14:31:35.622Z,22.10
2018-12-02T14:34:03.197Z,22.20
2018-12-02T14:36:30.799Z,22.10
2018-12-02T14:38:58.423Z,22.20
2018-12-02T14:41:26.008Z,22.10
2018-12-02T14:43:54.094Z,22.10
2018-12-02T14:46:21.679Z,22.20
2018-12-02T14:48:49.269Z,22.20
2018-12-02T14:51:16.915Z,22.20
2018-12-02T14:53:44.522Z,22.20
2018-12-02T14:56:12.133Z,22.20
2018-12-02T14:58:39.769Z,22.10
2018-12-02T15:01:07.326Z,22.10
2018-12-02T15:03:34.892Z,22.10
2018-12-02T15:06:02.508Z,22.10
2018-12-02T15:08:30.137Z,22.10
2018-12-02T15:10:57.886Z,22.10
2018-12-02T15:13:25.494Z,22.10
2018-12-02T15:15:53.105Z,22.20
2018-12-02T15:18:20.773Z,22.10
2018-12-02T15:20:48.383Z,22.10
2018-12-02T15:23:15.947Z,22.20
2018-12-02T15:25:43.584Z,22.10
2018-12-02T15:28:11.319Z,22.10
2018-12-02T15:30:38.925Z,22.10
2018-12-02T15:33:06.676Z,22.10
2018-12-02T15:35:34.345Z,22.20
2018-12-02T15:38:01.932Z,22.10
2018-12-02T15:40:29.603Z,22.10
2018-12-02T15:42:57.295Z,22.10
2018-12-02T15:45:24.883Z,22.20
2018-12-02T15:47:52.485Z,22.10
2018-12-02T15:50:20.747Z,22.20
2018-12-02T15:52:48.378Z,22.10
2018-12-02T15:55:21.016Z,22.10
2018-12-02T15:57:48.675Z,22.20
2018-12-02T16:00:23.544Z,22.10
2018-12-02T16:02:51.133Z,22.10
2018-12-02T16:05:18.850Z,22.10
2018-12-02T16:07:46.491Z,22.10
2018-12-02T16:10:14.294Z,22.10
2018-12-02T16:12:42.536Z,22.10
2018-12-02T16:15:17.482Z,22.10
2018-12-02T16:17:45.660Z,22.10
2018-12-02T16:20:14.158Z,22.20
2018-12-02T16:22:41.856Z,22.20
2018-12-02T16:25:09.977Z,22.20
2018-12-02T16:27:37.582Z,22.20
2018-12-02T16:30:13.294Z,22.30
2018-12-02T16:32:41.257Z,22.30
2018-12-02T16:35:09.931Z,22.30
2018-12-02T16:37:37.624Z,22.30
2018-12-02T16:40:07.363Z,22.30
2018-12-02T16:42:34.965Z,22.30
2018-12-02T16:45:02.630Z,22.30
2018-12-02T16:47:30.270Z,22.30
2018-12-02T16:49:57.907Z,22.30
2018-12-02T16:52:25.516Z,22.30
2018-12-02T16:54:53.106Z,22.30
2018-12-02T16:57:20.742Z,22.30
2018-12-02T16:59:48.330Z,22.40
2018-12-02T17:02:15.889Z,22.40
2018-12-02T17:04:43.479Z,22.40
2018-12-02T17:07:11.272Z,22.40
2018-12-02T17:09:38.946Z,22.40
2018-12-02T17:12:06.615Z,22.40
2018-12-02T17:14:38.647Z,22.40
2018-12-02T17:17:01.763Z,22.40
2018-12-02T17:19:29.482Z,22.40
2018-12-02T17:21:57.104Z,22.50
2018-12-02T17:24:24.663Z,22.50
2018-12-02T17:26:52.330Z,22.50
2018-12-02T17:29:20.363Z,22.50
2018-12-02T17:31:49.074Z,22.40
2018-12-02T17:34:17.005Z,22.50
2018-12-02T17:36:44.576Z,22.50
2018-12-02T17:39:14.378Z,22.50
2018-12-02T17:41:42.735Z,22.50
2018-12-02T17:44:10.452Z,22.40
2018-12-02T17:46:38.075Z,22.40
2018-12-02T17:49:05.733Z,22.40
2018-12-02T17:51:33.324Z,22.30
2018-12-02T17:54:00.928Z,22.30
2018-12-02T17:56:28.642Z,22.30
2018-12-02T17:58:56.347Z,22.30
2018-12-02T18:01:23.993Z,22.30
2018-12-02T18:03:51.685Z,22.30
2018-12-02T18:06:19.312Z,22.30
2018-12-02T18:08:47.026Z,22.30
2018-12-02T18:11:14.624Z,22.20
2018-12-02T18:13:42.258Z,22.20
2018-12-02T18:16:09.955Z,22.20
2018-12-02T18:18:37.652Z,22.20
2018-12-02T18:21:05.294Z,22.20
2018-12-02T18:23:33.106Z,22.20
2018-12-02T18:26:01.611Z,22.20
2018-12-02T18:28:29.278Z,22.20
2018-12-02T18:30:57.127Z,22.20
2018-12-02T18:33:24.969Z,22.20
2018-12-02T18:35:55.847Z,22.20
2018-12-02T18:38:24.213Z,22.20
2018-12-02T18:40:54.133Z,22.20
2018-12-02T18:43:21.762Z,22.20
2018-12-02T18:45:49.368Z,22.20
2018-12-02T18:48:17.007Z,22.20
2018-12-02T18:50:44.670Z,22.20
2018-12-02T18:53:12.252Z,22.20
2018-12-02T18:55:39.895Z,22.20
2018-12-02T18:58:07.557Z,22.20
2018-12-02T19:00:40.724Z,22.20
2018-12-02T19:03:08.494Z,22.20
2018-12-02T19:05:36.694Z,22.20
2018-12-02T19:08:04.378Z,22.20
2018-12-02T19:10:32.199Z,22.20
2018-12-02T19:12:59.810Z,22.20
2018-12-02T19:15:27.601Z,22.20
2018-12-02T19:17:55.293Z,22.20
2018-12-02T19:20:25.139Z,22.20
2018-12-02T19:22:59.077Z,22.30
2018-12-02T19:25:29.316Z,22.20
2018-12-02T19:27:56.988Z,22.20
2018-12-02T19:30:24.764Z,22.30
2018-12-02T19:32:52.469Z,22.20
2018-12-02T19:35:22.991Z,22.30
2018-12-02T19:37:51.548Z,22.30
2018-12-02T19:40:19.414Z,22.20
2018-12-02T19:42:47.001Z,22.20
2018-12-02T19:45:16.406Z,22.30
2018-12-02T19:47:44.046Z,22.30
2018-12-02T19:50:13.161Z,22.30
2018-12-02T19:52:40.833Z,22.30
2018-12-02T19:55:09.202Z,22.30
2018-12-02T19:57:36.817Z,22.30
2018-12-02T20:00:06.509Z,22.30
2018-12-02T20:02:34.225Z,22.30
2018-12-02T20:05:01.914Z,22.30
2018-12-02T20:07:29.581Z,22.30
2018-12-02T20:09:57.210Z,22.30
2018-12-02T20:12:24.946Z,22.30
2018-12-02T20:14:52.639Z,22.40
2018-12-02T20:17:20.222Z,22.40
2018-12-02T20:19:53.346Z,22.40
2018-12-02T20:22:20.915Z,22.50
2018-12-02T20:24:48.535Z,22.40
2018-12-02T20:27:16.243Z,22.40
2018-12-02T20:29:43.826Z,22.30
2018-12-02T20:32:12.176Z,22.30
2018-12-02T20:34:39.952Z,22.30
2018-12-02T20:37:08.257Z,22.30
2018-12-02T20:39:35.946Z,22.30
2018-12-02T20:42:03.601Z,22.30
2018-12-02T20:44:31.191Z,22.30
2018-12-02T20:46:58.869Z,22.30
2018-12-02T20:49:26.525Z,22.30
2018-12-02T20:51:54.203Z,22.30
2018-12-02T20:54:21.792Z,22.30
2018-12-02T20:56:49.427Z,22.30
2018-12-02T20:59:17.032Z,22.30
2018-12-02T21:01:44.613Z,22.30
2018-12-02T21:04:12.778Z,22.30
2018-12-02T21:06:40.455Z,22.40
2018-12-02T21:09:08.121Z,22.30
2018-12-02T21:11:40.477Z,22.40
2018-12-02T21:14:03.405Z,22.30
2018-12-02T21:16:30.979Z,22.30
2018-12-02T21:18:58.755Z,22.30
2018-12-02T21:21:26.754Z,22.30
2018-12-02T21:23:54.405Z,22.30
2018-12-02T21:26:22.011Z,22.30
2018-12-02T21:28:49.691Z,22.30
2018-12-02T21:31:17.295Z,22.30
2018-12-02T21:33:44.895Z,22.30
2018-12-02T21:36:12.599Z,22.30
2018-12-02T21:38:40.239Z,22.30
2018-12-02T21:41:07.876Z,22.30
2018-12-02T21:43:35.551Z,22.30
2018-12-02T21:46:03.197Z,22.30
2018-12-02T21:48:30.773Z,22.30
2018-12-02T21:50:58.424Z,22.30
2018-12-02T21:53:25.991Z,22.20
2018-12-02T21:55:53.582Z,22.30
2018-12-02T21:58:21.188Z,22.30
2018-12-02T22:00:54.313Z,22.30
2018-12-02T22:03:21.918Z,22.30
2018-12-02T22:05:49.521Z,22.20
2018-12-02T22:08:17.119Z,22.30
2018-12-02T22:10:44.735Z,22.30
2018-12-02T22:13:12.392Z,22.30
2018-12-02T22:15:40.044Z,22.30
2018-12-02T22:18:07.647Z,22.30
2018-12-02T22:20:35.288Z,22.20
2018-12-02T22:23:02.922Z,22.30
2018-12-02T22:25:30.494Z,22.20
2018-12-02T22:27:58.093Z,22.20
2018-12-02T22:30:25.831Z,22.20
2018-12-02T22:32:53.594Z,22.20
2018-12-02T22:35:21.373Z,22.20
2018-12-02T22:37:49.015Z,22.20
2018-12-02T22:40:17.199Z,22.20
2018-12-02T22:42:44.791Z,22.20
2018-12-02T22:45:13.245Z,22.20
2018-12-02T22:47:40.782Z,22.20
2018-12-02T22:50:10.079Z,22.20
2018-12-02T22:52:37.720Z,22.20
2018-12-02T22:55:06.141Z,22.20
2018-12-02T22:57:33.723Z,22.20
2018-12-02T23:00:01.343Z,22.20
2018-12-02T23:02:29.655Z,22.20
2018-12-02T23:04:57.247Z,22.20
2018-12-02T23:07:24.907Z,22.20
2018-12-02T23:09:52.529Z,22.20
2018-12-02T23:12:20.098Z,22.20
2018-12-02T23:14:47.754Z,22.20
2018-12-02T23:17:19.002Z,22.20
2018-12-02T23:19:46.569Z,22.20
2018-12-02T23:22:14.213Z,22.20
2018-12-02T23:24:41.848Z,22.20
2018-12-02T23:27:09.488Z,22.20
2018-12-02T23:29:37.065Z,22.10
2018-12-02T23:32:04.949Z,22.10
2018-12-02T23:34:32.591Z,22.10
2018-12-02T23:37:00.255Z,22.10
2018-12-02T23:39:27.879Z,22.20
2018-12-02T23:41:55.516Z,21.90
2018-12-02T23:44:23.151Z,22.20
2018-12-02T23:46:50.771Z,22.20
2018-12-02T23:49:18.332Z,22.20
2018-12-02T23:51:46.245Z,22.20
2018-12-02T23:54:13.822Z,22.20
2018-12-02T23:56:41.515Z,22.20
2018-12-02T23:59:09.185Z,22.20
